createdAt,value
2022-12-03T00:00:13.307Z,13.02
2022-12-03T00:02:41.943Z,14.20
2022-12-03T00:05:09.616Z,13.93
2022-12-03T00:07:36.619Z,12.73
2022-12-03T00:10:05.049Z,13.32
2022-12-03T00:12:31.742Z,9.63
2022-12-03T00:14:58.700Z,8.80
2022-12-03T00:17:25.586Z,10.07
2022-12-03T00:19:52.451Z,10.75
2022-12-03T00:22:19.251Z,12.57
2022-12-03T00:24:45.982Z,9.77
2022-12-03T00:27:12.679Z,11.80
2022-12-03T00:29:39.451Z,12.57
2022-12-03T00:32:06.356Z,13.27
2022-12-03T00:34:33.107Z,13.23
2022-12-03T00:36:59.868Z,12.35
2022-12-03T00:39:26.593Z,10.65
2022-12-03T00:41:53.311Z,12.67
2022-12-03T00:44:20.096Z,12.57
2022-12-03T00:46:46.853Z,7.22
2022-12-03T00:49:13.708Z,10.35
2022-12-03T00:51:40.570Z,11.73
2022-12-03T00:54:07.276Z,13.37
2022-12-03T00:56:34.142Z,11.55
2022-12-03T00:59:01.051Z,11.57
2022-12-03T01:01:27.834Z,12.27
2022-12-03T01:03:54.591Z,12.60
2022-12-03T01:06:21.385Z,9.13
2022-12-03T01:08:48.113Z,10.07
2022-12-03T01:11:33.314Z,7.57
2022-12-03T01:14:00.039Z,7.85
2022-12-03T01:16:26.771Z,13.07
2022-12-03T01:18:53.570Z,12.30
2022-12-03T01:21:20.453Z,11.77
2022-12-03T01:23:47.290Z,10.65
2022-12-03T01:26:14.050Z,8.52
2022-12-03T01:28:42.110Z,10.38
2022-12-03T01:31:27.603Z,9.57
2022-12-03T01:33:54.762Z,10.57
2022-12-03T01:36:21.898Z,9.15
2022-12-03T01:38:51.683Z,9.20
2022-12-03T01:41:19.403Z,10.77
2022-12-03T01:43:46.771Z,7.70
2022-12-03T01:46:20.116Z,9.43
2022-12-03T01:48:49.250Z,9.55
2022-12-03T01:51:16.497Z,10.02
2022-12-03T01:53:44.509Z,8.07
2022-12-03T01:56:15.834Z,7.57
2022-12-03T01:58:43.559Z,6.93
2022-12-03T02:01:16.640Z,9.77
2022-12-03T02:03:44.546Z,7.53
2022-12-03T02:06:17.399Z,10.10
2022-12-03T02:08:44.822Z,8.53
2022-12-03T02:11:33.305Z,6.00
2022-12-03T02:14:03.998Z,8.15
2022-12-03T02:16:31.074Z,6.68
2022-12-03T02:18:58.553Z,8.38
2022-12-03T02:21:50.720Z,9.87
2022-12-03T02:24:33.462Z,7.03
2022-12-03T02:27:00.211Z,8.40
2022-12-03T02:29:26.998Z,10.05
2022-12-03T02:31:53.878Z,6.85
2022-12-03T02:34:53.385Z,8.77
2022-12-03T02:37:25.016Z,10.55
2022-12-03T02:39:55.112Z,10.00
2022-12-03T02:42:37.864Z,9.23
2022-12-03T02:45:25.667Z,8.23
2022-12-03T02:47:59.113Z,10.20
2022-12-03T02:50:30.301Z,9.70
2022-12-03T02:53:01.067Z,10.18
2022-12-03T02:55:34.943Z,10.80
2022-12-03T02:58:04.936Z,10.32
2022-12-03T03:00:31.986Z,9.37
2022-12-03T03:02:59.200Z,10.68
2022-12-03T03:05:25.991Z,10.98
2022-12-03T03:07:52.959Z,9.32
2022-12-03T03:10:23.236Z,10.50
2022-12-03T03:12:52.666Z,10.03
2022-12-03T03:15:20.235Z,10.00
2022-12-03T03:17:47.025Z,10.55
2022-12-03T03:20:14.979Z,10.23
2022-12-03T03:22:43.272Z,8.68
2022-12-03T03:25:15.346Z,10.53
2022-12-03T03:27:42.495Z,9.15
2022-12-03T03:30:10.255Z,9.95
2022-12-03T03:32:38.272Z,10.02
2022-12-03T03:35:06.315Z,11.25
2022-12-03T03:37:33.086Z,10.27
2022-12-03T03:39:59.980Z,11.10
2022-12-03T03:42:26.773Z,9.73
2022-12-03T03:44:53.922Z,9.50
2022-12-03T03:47:20.928Z,8.30
2022-12-03T03:49:50.609Z,9.50
2022-12-03T03:52:19.511Z,10.65
2022-12-03T03:54:47.263Z,10.93
2022-12-03T03:57:14.399Z,10.90
2022-12-03T03:59:41.396Z,7.25
2022-12-03T04:02:17.790Z,9.70
2022-12-03T04:04:44.682Z,9.55
2022-12-03T04:07:11.431Z,9.85
2022-12-03T04:09:38.131Z,8.27
2022-12-03T04:12:23.847Z,8.80
2022-12-03T04:14:50.736Z,11.17
2022-12-03T04:17:17.491Z,11.95
2022-12-03T04:19:44.277Z,11.75
2022-12-03T04:22:29.430Z,11.10
2022-12-03T04:25:16.207Z,11.32
2022-12-03T04:28:01.674Z,10.73
2022-12-03T04:30:28.551Z,10.10
2022-12-03T04:33:13.708Z,10.73
2022-12-03T04:35:43.379Z,11.07
2022-12-03T04:38:11.736Z,11.07
2022-12-03T04:40:57.676Z,10.67
2022-12-03T04:43:25.060Z,11.32
2022-12-03T04:45:51.798Z,11.55
2022-12-03T04:48:18.601Z,12.07
2022-12-03T04:50:45.467Z,8.38
2022-12-03T04:53:12.222Z,9.67
2022-12-03T04:55:38.941Z,8.07
2022-12-03T04:58:06.293Z,10.77
2022-12-03T05:00:33.078Z,10.88
2022-12-03T05:02:59.849Z,9.77
2022-12-03T05:05:26.722Z,11.67
2022-12-03T05:07:53.442Z,11.05
2022-12-03T05:10:20.232Z,4.97
2022-12-03T05:12:46.949Z,10.88
2022-12-03T05:15:13.784Z,10.95
2022-12-03T05:17:40.520Z,12.73
2022-12-03T05:20:27.829Z,10.70
2022-12-03T05:22:54.690Z,9.77
2022-12-03T05:25:21.472Z,10.88
2022-12-03T05:27:48.170Z,10.88
2022-12-03T05:30:15.167Z,11.70
2022-12-03T05:32:41.834Z,11.65
2022-12-03T05:35:09.994Z,11.18
2022-12-03T05:37:36.774Z,12.13
2022-12-03T05:40:04.237Z,12.02
2022-12-03T05:42:49.343Z,12.00
2022-12-03T05:45:16.138Z,10.50
2022-12-03T05:47:42.875Z,11.13
2022-12-03T05:50:10.061Z,12.93
2022-12-03T05:52:36.791Z,11.52
2022-12-03T05:55:03.995Z,11.93
2022-12-03T05:57:30.753Z,12.13
2022-12-03T05:59:57.487Z,10.75
2022-12-03T06:02:24.432Z,11.45
2022-12-03T06:04:51.495Z,9.40
2022-12-03T06:07:18.577Z,10.30
2022-12-03T06:09:45.321Z,10.70
2022-12-03T06:12:12.023Z,9.82
2022-12-03T06:14:38.751Z,10.63
2022-12-03T06:17:05.500Z,11.30
2022-12-03T06:19:33.163Z,10.47
2022-12-03T06:22:00.021Z,11.15
2022-12-03T06:24:26.735Z,11.27
2022-12-03T06:26:53.401Z,10.70
2022-12-03T06:29:20.187Z,10.85
2022-12-03T06:31:47.005Z,10.97
2022-12-03T06:34:13.836Z,11.95
2022-12-03T06:36:40.543Z,11.50
2022-12-03T06:39:07.289Z,12.20
2022-12-03T06:41:34.152Z,12.15
2022-12-03T06:44:00.848Z,11.43
2022-12-03T06:46:27.851Z,12.18
2022-12-03T06:48:54.667Z,10.80
2022-12-03T06:51:21.441Z,11.90
2022-12-03T06:53:48.140Z,11.02
2022-12-03T06:56:17.873Z,11.47
2022-12-03T06:58:48.371Z,11.88
2022-12-03T07:01:15.210Z,10.70
2022-12-03T07:03:41.951Z,11.63
2022-12-03T07:06:08.894Z,11.82
2022-12-03T07:08:35.710Z,11.90
2022-12-03T07:11:02.517Z,11.93
2022-12-03T07:13:29.235Z,10.65
2022-12-03T07:15:56.012Z,9.45
2022-12-03T07:18:22.841Z,10.60
2022-12-03T07:20:49.530Z,10.10
2022-12-03T07:23:16.294Z,10.40
2022-12-03T07:25:43.055Z,10.95
2022-12-03T07:28:09.742Z,10.82
2022-12-03T07:30:36.532Z,11.70
2022-12-03T07:33:03.270Z,10.23
2022-12-03T07:35:29.993Z,11.52
2022-12-03T07:37:56.685Z,10.43
2022-12-03T07:40:23.467Z,9.75
2022-12-03T07:42:50.188Z,11.32
2022-12-03T07:45:16.884Z,11.97
2022-12-03T07:47:43.590Z,10.98
2022-12-03T07:50:10.780Z,11.20
2022-12-03T07:52:37.601Z,9.20
2022-12-03T07:55:19.466Z,10.25
2022-12-03T07:57:46.203Z,11.00
2022-12-03T08:00:14.446Z,11.68
2022-12-03T08:02:41.425Z,12.95
2022-12-03T08:05:08.475Z,10.73
2022-12-03T08:07:35.447Z,10.85
2022-12-03T08:10:02.283Z,11.37
2022-12-03T08:12:42.204Z,11.32
2022-12-03T08:15:13.627Z,10.38
2022-12-03T08:17:42.274Z,8.48
2022-12-03T08:20:14.290Z,8.25
2022-12-03T08:22:45.839Z,10.30
2022-12-03T08:25:15.482Z,10.93
2022-12-03T08:27:42.236Z,9.88
2022-12-03T08:30:13.130Z,9.68
2022-12-03T08:32:40.546Z,9.88
2022-12-03T08:35:30.517Z,6.17
2022-12-03T08:38:11.371Z,9.95
2022-12-03T08:40:43.173Z,11.35
2022-12-03T08:43:21.271Z,10.98
2022-12-03T08:45:49.936Z,9.85
2022-12-03T08:48:34.473Z,9.93
2022-12-03T08:51:03.579Z,9.45
2022-12-03T08:53:46.543Z,15.05
2022-12-03T08:56:24.234Z,8.32
2022-12-03T08:58:57.169Z,7.63
2022-12-03T09:01:32.528Z,9.63
2022-12-03T09:04:16.495Z,11.50
2022-12-03T09:06:43.303Z,10.02
2022-12-03T09:09:10.350Z,9.20
2022-12-03T09:11:37.530Z,11.23
2022-12-03T09:14:05.062Z,10.23
2022-12-03T09:16:32.042Z,10.48
2022-12-03T09:18:58.971Z,6.85
2022-12-03T09:21:25.667Z,9.57
2022-12-03T09:23:52.512Z,8.38
2022-12-03T09:26:19.286Z,8.33
2022-12-03T09:28:48.231Z,10.30
2022-12-03T09:31:16.064Z,8.90
2022-12-03T09:33:43.288Z,10.50
2022-12-03T09:36:10.089Z,10.70
2022-12-03T09:38:37.032Z,10.07
2022-12-03T09:41:03.900Z,8.82
2022-12-03T09:44:02.904Z,10.68
2022-12-03T09:46:22.668Z,9.75
2022-12-03T09:48:49.960Z,9.32
2022-12-03T09:51:17.387Z,9.35
2022-12-03T09:53:44.235Z,9.73
2022-12-03T09:56:18.093Z,8.88
2022-12-03T09:58:45.180Z,9.23
2022-12-03T10:01:15.124Z,6.95
2022-12-03T10:03:52.110Z,8.48
2022-12-03T10:06:22.260Z,10.27
2022-12-03T10:08:53.513Z,9.38
2022-12-03T10:11:22.541Z,6.43
2022-12-03T10:13:52.630Z,10.65
2022-12-03T10:16:20.951Z,10.60
2022-12-03T10:18:56.889Z,10.32
2022-12-03T10:21:37.047Z,7.82
2022-12-03T10:24:29.203Z,8.43
2022-12-03T10:27:01.763Z,9.65
2022-12-03T10:29:34.018Z,5.82
2022-12-03T10:32:09.413Z,8.40
2022-12-03T10:34:38.719Z,7.35
2022-12-03T10:37:18.461Z,9.18
2022-12-03T10:40:09.201Z,7.72
2022-12-03T10:42:41.385Z,9.40
2022-12-03T10:45:12.559Z,9.63
2022-12-03T10:47:39.517Z,7.65
2022-12-03T10:50:16.159Z,8.23
2022-12-03T10:52:43.627Z,9.85
2022-12-03T10:55:14.459Z,10.10
2022-12-03T10:57:45.700Z,9.55
2022-12-03T11:00:18.338Z,10.43
2022-12-03T11:02:48.340Z,8.23
2022-12-03T11:05:22.938Z,8.88
2022-12-03T11:07:50.290Z,8.70
2022-12-03T11:10:19.015Z,10.55
2022-12-03T11:13:29.225Z,7.93
2022-12-03T11:15:56.805Z,9.50
2022-12-03T11:18:36.057Z,9.27
2022-12-03T11:21:07.072Z,7.30
2022-12-03T11:23:45.684Z,7.25
2022-12-03T11:26:19.973Z,7.88
2022-12-03T11:28:46.942Z,7.40
2022-12-03T11:31:43.483Z,8.35
2022-12-03T11:34:22.485Z,6.17
2022-12-03T11:37:11.035Z,6.95
2022-12-03T11:39:50.539Z,8.43
2022-12-03T11:42:26.224Z,7.05
2022-12-03T11:45:05.274Z,6.65
2022-12-03T11:47:44.386Z,8.03
2022-12-03T11:50:22.692Z,9.82
2022-12-03T11:52:54.215Z,10.13
2022-12-03T11:55:34.729Z,6.68
2022-12-03T11:58:04.622Z,8.15
2022-12-03T12:00:31.649Z,8.48
2022-12-03T12:02:59.165Z,7.85
2022-12-03T12:05:33.720Z,8.32
2022-12-03T12:08:02.247Z,6.40
2022-12-03T12:10:49.052Z,8.85
2022-12-03T12:13:31.015Z,7.60
2022-12-03T12:16:06.206Z,6.45
2022-12-03T12:18:40.236Z,8.70
2022-12-03T12:21:47.651Z,9.57
2022-12-03T12:24:32.947Z,9.40
2022-12-03T12:27:02.882Z,7.87
2022-12-03T12:29:29.651Z,10.13
2022-12-03T12:32:15.242Z,5.55
2022-12-03T12:34:45.196Z,8.95
2022-12-03T12:37:32.712Z,8.50
2022-12-03T12:40:01.735Z,8.85
2022-12-03T12:42:36.813Z,7.47
2022-12-03T12:45:14.790Z,9.20
2022-12-03T12:48:03.331Z,8.55
2022-12-03T12:50:31.000Z,8.70
2022-12-03T12:53:02.945Z,9.43
2022-12-03T12:55:29.734Z,6.13
2022-12-03T12:58:02.443Z,8.77
2022-12-03T13:00:29.249Z,9.07
2022-12-03T13:03:01.776Z,9.45
2022-12-03T13:05:40.531Z,7.78
2022-12-03T13:08:18.990Z,9.57
2022-12-03T13:10:46.102Z,10.40
2022-12-03T13:13:14.906Z,9.02
2022-12-03T13:15:50.683Z,10.20
2022-12-03T13:18:22.346Z,9.48
2022-12-03T13:20:49.209Z,11.05
2022-12-03T13:23:35.368Z,10.18
2022-12-03T13:29:06.247Z,10.68
2022-12-03T13:31:40.596Z,10.60
2022-12-03T13:34:18.861Z,11.07
2022-12-03T13:36:50.535Z,11.38
2022-12-03T13:39:35.135Z,11.65
2022-12-03T13:42:26.594Z,8.80
2022-12-03T13:44:53.815Z,10.88
2022-12-03T13:47:22.383Z,11.65
2022-12-03T13:50:03.676Z,10.65
2022-12-03T13:52:32.880Z,11.93
2022-12-03T13:55:03.428Z,11.35
2022-12-03T13:57:30.237Z,12.43
2022-12-03T13:59:57.172Z,11.80
2022-12-03T14:02:24.339Z,11.38
2022-12-03T14:04:56.815Z,11.18
2022-12-03T14:07:26.756Z,11.98
2022-12-03T14:09:53.822Z,12.05
2022-12-03T14:12:26.876Z,11.05
2022-12-03T14:14:54.092Z,11.65
2022-12-03T14:17:20.979Z,11.32
2022-12-03T14:19:47.750Z,9.93
2022-12-03T14:22:14.518Z,10.77
2022-12-03T14:24:41.763Z,12.45
2022-12-03T14:27:08.578Z,11.85
2022-12-03T14:29:35.465Z,11.23
2022-12-03T14:32:02.481Z,12.80
2022-12-03T14:34:29.298Z,13.30
2022-12-03T14:36:56.063Z,12.70
2022-12-03T14:39:22.799Z,11.48
2022-12-03T14:42:09.162Z,13.45
2022-12-03T14:44:35.905Z,11.45
2022-12-03T14:47:02.621Z,10.75
2022-12-03T14:49:29.591Z,10.95
2022-12-03T14:51:56.402Z,10.75
2022-12-03T14:54:23.258Z,11.40
2022-12-03T14:56:50.238Z,12.32
2022-12-03T14:59:16.991Z,12.68
2022-12-03T15:01:43.884Z,12.02
2022-12-03T15:04:10.619Z,13.48
2022-12-03T15:06:37.431Z,12.40
2022-12-03T15:09:04.664Z,12.55
2022-12-03T15:11:32.320Z,13.57
2022-12-03T15:13:59.271Z,13.35
2022-12-03T15:16:26.135Z,12.55
2022-12-03T15:18:52.935Z,13.10
2022-12-03T15:21:19.867Z,12.48
2022-12-03T15:23:46.655Z,12.02
2022-12-03T15:26:13.362Z,13.35
2022-12-03T15:28:44.130Z,12.45
2022-12-03T15:31:13.638Z,12.45
2022-12-03T15:33:40.416Z,12.68
2022-12-03T15:36:07.534Z,12.18
2022-12-03T15:38:34.390Z,12.45
2022-12-03T15:41:21.032Z,13.50
2022-12-03T15:43:52.657Z,14.35
2022-12-03T15:46:21.605Z,14.73
2022-12-03T15:48:48.803Z,13.90
2022-12-03T15:51:15.558Z,13.52
2022-12-03T15:53:42.786Z,14.60
2022-12-03T15:56:11.824Z,16.30
2022-12-03T15:58:39.755Z,13.40
2022-12-03T16:01:07.904Z,14.50
2022-12-03T16:03:35.155Z,18.23
2022-12-03T16:06:01.948Z,14.73
2022-12-03T16:08:28.743Z,14.30
2022-12-03T16:10:55.437Z,11.80
2022-12-03T16:13:22.283Z,11.60
2022-12-03T16:15:49.289Z,14.27
2022-12-03T16:18:16.056Z,19.83
2022-12-03T16:20:42.819Z,26.63
2022-12-03T16:23:09.595Z,17.60
2022-12-03T16:25:36.454Z,14.13
2022-12-03T16:28:03.550Z,13.35
2022-12-03T16:30:30.354Z,14.77
2022-12-03T16:32:57.171Z,16.77
2022-12-03T16:35:24.029Z,16.27
2022-12-03T16:37:50.789Z,15.07
2022-12-03T16:40:17.632Z,13.65
2022-12-03T16:42:44.356Z,12.77
2022-12-03T16:45:11.145Z,11.63
2022-12-03T16:47:37.830Z,12.60
2022-12-03T16:50:08.003Z,12.60
2022-12-03T16:52:35.930Z,11.50
2022-12-03T16:55:02.742Z,11.70
2022-12-03T16:57:33.698Z,11.55
2022-12-03T17:00:01.154Z,12.25
2022-12-03T17:02:28.084Z,13.32
2022-12-03T17:04:55.489Z,13.52
2022-12-03T17:07:22.380Z,11.38
2022-12-03T17:09:49.467Z,12.52
2022-12-03T17:12:16.607Z,12.05
2022-12-03T17:14:43.546Z,12.27
2022-12-03T17:17:10.277Z,17.23
2022-12-03T17:19:37.056Z,21.63
2022-12-03T17:22:04.323Z,17.58
2022-12-03T17:24:31.440Z,15.32
2022-12-03T17:26:58.672Z,18.70
2022-12-03T17:29:26.255Z,18.13
2022-12-03T17:31:53.300Z,18.98
2022-12-03T17:34:20.328Z,18.08
2022-12-03T17:36:47.394Z,19.00
2022-12-03T17:39:14.129Z,18.33
2022-12-03T17:41:41.155Z,18.45
2022-12-03T17:44:11.358Z,17.58
2022-12-03T17:46:39.796Z,17.85
2022-12-03T17:49:06.623Z,18.20
2022-12-03T17:51:33.340Z,17.00
2022-12-03T17:54:00.604Z,17.80
2022-12-03T17:56:27.273Z,18.05
2022-12-03T17:58:54.130Z,17.75
2022-12-03T18:01:20.897Z,18.10
2022-12-03T18:03:47.775Z,18.55
2022-12-03T18:06:14.711Z,16.63
2022-12-03T18:08:41.468Z,18.45
2022-12-03T18:11:08.186Z,17.65
2022-12-03T18:13:35.248Z,18.10
2022-12-03T18:16:02.196Z,18.27
2022-12-03T18:18:29.047Z,16.98
2022-12-03T18:20:56.002Z,16.88
2022-12-03T18:23:22.846Z,17.15
2022-12-03T18:25:49.571Z,18.15
2022-12-03T18:28:16.331Z,16.75
2022-12-03T18:30:47.526Z,15.95
2022-12-03T18:33:17.612Z,16.20
2022-12-03T18:35:44.800Z,15.18
2022-12-03T18:38:13.973Z,15.48
2022-12-03T18:40:42.789Z,16.10
2022-12-03T18:43:13.900Z,14.88
2022-12-03T18:45:41.166Z,15.75
2022-12-03T18:48:16.218Z,16.05
2022-12-03T18:50:43.472Z,16.02
2022-12-03T18:53:15.653Z,15.77
2022-12-03T18:55:44.380Z,14.38
2022-12-03T18:58:11.595Z,15.15
2022-12-03T19:00:39.520Z,14.30
2022-12-03T19:03:06.984Z,15.43
2022-12-03T19:05:35.138Z,15.52
2022-12-03T19:08:02.931Z,15.45
2022-12-03T19:10:29.810Z,16.40
2022-12-03T19:12:57.084Z,15.93
2022-12-03T19:15:24.213Z,15.02
2022-12-03T19:17:51.459Z,13.38
2022-12-03T19:20:18.333Z,14.93
2022-12-03T19:22:45.142Z,15.88
2022-12-03T19:25:12.123Z,15.65
2022-12-03T19:27:38.899Z,14.50
2022-12-03T19:30:06.363Z,13.70
2022-12-03T19:32:34.586Z,13.75
2022-12-03T19:35:05.170Z,14.88
2022-12-03T19:37:35.099Z,14.55
2022-12-03T19:40:01.836Z,14.80
2022-12-03T19:42:28.773Z,15.10
2022-12-03T19:44:55.525Z,14.00
2022-12-03T19:47:24.629Z,15.88
2022-12-03T19:49:53.792Z,13.77
2022-12-03T19:52:20.850Z,14.82
2022-12-03T19:54:47.774Z,13.30
2022-12-03T19:57:25.478Z,12.88
2022-12-03T19:59:53.418Z,11.63
2022-12-03T20:02:20.550Z,11.93
2022-12-03T20:04:47.362Z,13.95
2022-12-03T20:07:14.171Z,13.00
2022-12-03T20:09:40.956Z,13.82
2022-12-03T20:12:07.751Z,13.00
2022-12-03T20:14:34.535Z,12.80
2022-12-03T20:17:01.332Z,11.43
2022-12-03T20:19:28.158Z,11.13
2022-12-03T20:22:00.747Z,14.75
2022-12-03T20:24:29.239Z,13.07
2022-12-03T20:26:55.991Z,12.82
2022-12-03T20:29:22.734Z,12.48
2022-12-03T20:31:49.603Z,12.93
2022-12-03T20:34:16.433Z,13.05
2022-12-03T20:36:44.230Z,12.73
2022-12-03T20:39:11.079Z,13.25
2022-12-03T20:41:38.279Z,12.95
2022-12-03T20:44:07.440Z,13.40
2022-12-03T20:46:34.678Z,10.43
2022-12-03T20:49:01.552Z,13.52
2022-12-03T20:51:30.225Z,13.63
2022-12-03T20:53:59.070Z,9.52
2022-12-03T20:56:31.637Z,12.70
2022-12-03T20:59:07.091Z,6.65
2022-12-03T21:01:36.126Z,10.38
2022-12-03T21:04:04.769Z,10.32
2022-12-03T21:06:34.098Z,11.85
2022-12-03T21:09:01.146Z,10.57
2022-12-03T21:11:29.996Z,10.98
2022-12-03T21:13:57.939Z,10.40
2022-12-03T21:16:59.026Z,10.60
2022-12-03T21:19:17.803Z,10.35
2022-12-03T21:21:44.517Z,10.35
2022-12-03T21:24:12.506Z,11.02
2022-12-03T21:26:39.533Z,9.57
2022-12-03T21:29:06.658Z,8.32
2022-12-03T21:31:35.387Z,7.68
2022-12-03T21:34:02.866Z,6.70
2022-12-03T21:36:29.754Z,8.55
2022-12-03T21:38:56.511Z,8.27
2022-12-03T21:41:23.283Z,11.35
2022-12-03T21:43:50.842Z,11.38
2022-12-03T21:47:12.205Z,12.65
2022-12-03T21:49:04.300Z,11.25
2022-12-03T21:51:31.216Z,11.73
2022-12-03T21:53:57.903Z,12.43
2022-12-03T21:56:24.760Z,11.57
2022-12-03T21:58:51.551Z,11.98
2022-12-03T22:01:21.046Z,11.68
2022-12-03T22:03:48.120Z,12.15
2022-12-03T22:06:15.618Z,12.55
2022-12-03T22:08:43.018Z,12.70
2022-12-03T22:11:19.429Z,12.57
2022-12-03T22:13:46.499Z,11.00
2022-12-03T22:16:16.036Z,11.60
2022-12-03T22:18:43.213Z,9.73
2022-12-03T22:21:13.121Z,11.07
2022-12-03T22:23:41.015Z,9.52
2022-12-03T22:26:10.770Z,8.90
2022-12-03T22:28:37.654Z,9.63
2022-12-03T22:31:08.442Z,11.05
2022-12-03T22:33:36.402Z,11.70
2022-12-03T22:36:06.234Z,11.18
2022-12-03T22:38:33.318Z,11.20
2022-12-03T22:41:04.227Z,10.50
2022-12-03T22:43:31.031Z,9.93
2022-12-03T22:45:57.834Z,10.25
2022-12-03T22:48:25.005Z,9.97
2022-12-03T22:50:52.849Z,9.50
2022-12-03T22:53:20.151Z,10.00
2022-12-03T22:55:55.542Z,7.47
2022-12-03T22:58:22.444Z,6.47
2022-12-03T23:00:49.881Z,9.68
2022-12-03T23:03:16.812Z,7.28
2022-12-03T23:05:43.566Z,8.70
2022-12-03T23:08:21.611Z,10.85
2022-12-03T23:10:50.722Z,11.13
2022-12-03T23:13:19.006Z,10.93
2022-12-03T23:15:51.398Z,10.65
2022-12-03T23:18:20.026Z,11.30
2022-12-03T23:20:52.289Z,9.45
2022-12-03T23:23:20.970Z,9.80
2022-12-03T23:26:00.752Z,10.50
2022-12-03T23:28:29.052Z,10.02
2022-12-03T23:30:56.453Z,9.57
2022-12-03T23:33:23.781Z,10.65
2022-12-03T23:35:50.577Z,7.60
2022-12-03T23:38:17.479Z,7.53
2022-12-03T23:40:48.051Z,8.23
2022-12-03T23:43:15.790Z,9.15
2022-12-03T23:45:42.494Z,10.18
2022-12-03T23:48:09.220Z,10.00
2022-12-03T23:50:39.761Z,9.13
2022-12-03T23:53:06.702Z,9.77
2022-12-03T23:55:33.747Z,10.23
2022-12-03T23:58:00.462Z,9.70
